Time;durP1;ratioP1;P1;durP2;ratioP2;P2;SDS_P1;SDS_P2;PMS_P1;PMS_P2;Temp;Humidity;BMP_temperature;BMP_pressure;BME280_temperature;BME280_humidity;BME280_pressure;Samples;Min_cycle;Max_cycle;Signal;HPM_P1;HPM_P2
2024/01/29 00:01:45;;;;;;;26.10;13.80;;;-0.80;99.90;;;;;;5045557;28;20216;-60
2024/01/29 00:04:10;;;;;;;31.03;14.27;;;-0.80;99.90;;;;;;5043327;28;20183;-59
2024/01/29 00:06:36;;;;;;;21.07;13.83;;;-0.80;99.90;;;;;;5034073;28;20185;-60
2024/01/29 00:09:02;;;;;;;24.87;13.67;;;-0.80;99.90;;;;;;5045699;28;20594;-60
2024/01/29 00:11:27;;;;;;;24.37;13.77;;;-0.90;99.90;;;;;;5045131;28;20936;-60
2024/01/29 00:13:53;;;;;;;25.80;14.40;;;-0.90;99.90;;;;;;5040573;28;20189;-60
2024/01/29 00:16:19;;;;;;;30.70;14.37;;;-0.90;99.90;;;;;;5040187;28;20177;-59
2024/01/29 00:18:45;;;;;;;30.13;13.60;;;-0.90;99.90;;;;;;5044586;28;20200;-60
2024/01/29 00:21:12;;;;;;;25.70;13.73;;;-0.90;99.90;;;;;;5033616;28;20209;-59
2024/01/29 00:23:38;;;;;;;22.37;12.20;;;-1.00;99.90;;;;;;5032378;28;20489;-60
2024/01/29 00:26:03;;;;;;;28.20;12.53;;;-1.00;99.90;;;;;;5031448;28;20520;-60
2024/01/29 00:28:29;;;;;;;21.87;12.43;;;-1.00;99.90;;;;;;5046594;28;20228;-60
2024/01/29 00:30:55;;;;;;;21.03;12.20;;;-1.00;99.90;;;;;;5033734;28;20291;-60
2024/01/29 00:33:20;;;;;;;27.87;13.57;;;-1.00;99.90;;;;;;5037950;28;20795;-60
2024/01/29 00:35:46;;;;;;;20.07;11.27;;;-1.00;99.90;;;;;;5040266;28;20181;-60
2024/01/29 00:38:11;;;;;;;20.37;12.20;;;-1.10;99.90;;;;;;5038580;28;20843;-60
2024/01/29 00:40:37;;;;;;;19.33;11.63;;;-1.00;99.90;;;;;;5032353;28;20212;-60
2024/01/29 00:43:03;;;;;;;24.67;12.23;;;-1.10;99.90;;;;;;5041588;28;20169;-60
2024/01/29 00:45:29;;;;;;;22.43;11.63;;;-1.10;99.90;;;;;;5044741;28;20200;-60
2024/01/29 00:47:55;;;;;;;30.20;12.40;;;-1.10;99.90;;;;;;5040723;28;20501;-60
2024/01/29 00:50:20;;;;;;;27.63;12.27;;;-1.10;99.90;;;;;;5039475;28;20452;-60
2024/01/29 00:52:46;;;;;;;24.63;11.07;;;-1.10;99.90;;;;;;5042103;28;20582;-59
2024/01/29 00:55:12;;;;;;;26.53;11.90;;;-1.10;99.90;;;;;;5038667;28;20261;-59
2024/01/29 00:57:38;;;;;;;18.53;10.13;;;-1.10;99.90;;;;;;5040546;28;20185;-59
2024/01/29 01:00:07;;;;;;;16.87;9.70;;;-1.10;99.90;;;;;;5044455;28;20458;-59
2024/01/29 01:02:33;;;;;;;19.03;10.00;;;-1.10;99.90;;;;;;5041417;28;20216;-60
2024/01/29 01:04:59;;;;;;;17.13;9.70;;;-1.10;99.90;;;;;;5042401;28;20977;-59
2024/01/29 01:07:24;;;;;;;20.63;10.97;;;-1.10;99.90;;;;;;5037150;28;20161;-60
2024/01/29 01:09:50;;;;;;;16.23;9.83;;;-1.10;99.90;;;;;;5037505;28;20292;-59
2024/01/29 01:12:15;;;;;;;16.10;9.50;;;-1.10;99.90;;;;;;5036105;28;20679;-60
2024/01/29 01:14:41;;;;;;;17.80;9.73;;;-1.10;99.90;;;;;;5042201;28;20805;-60
2024/01/29 01:17:06;;;;;;;20.13;10.23;;;-1.10;99.90;;;;;;5045980;28;20173;-58
2024/01/29 01:19:32;;;;;;;18.03;9.33;;;-1.10;99.90;;;;;;5040224;28;20934;-59
2024/01/29 01:21:58;;;;;;;15.40;9.00;;;-1.20;99.90;;;;;;5034572;28;20406;-59
2024/01/29 01:24:23;;;;;;;12.67;8.37;;;-1.10;99.90;;;;;;5038083;28;20165;-59
2024/01/29 01:26:49;;;;;;;18.27;9.83;;;-1.20;99.90;;;;;;5038794;28;20179;-59
2024/01/29 01:29:14;;;;;;;14.73;8.90;;;-1.20;99.90;;;;;;5043162;28;20677;-60
2024/01/29 01:31:40;;;;;;;17.30;9.10;;;-1.20;99.90;;;;;;5035599;28;20189;-60
2024/01/29 01:34:06;;;;;;;11.80;8.87;;;-1.20;99.90;;;;;;5030937;28;20185;-60
2024/01/29 01:36:31;;;;;;;20.10;9.53;;;-1.20;99.90;;;;;;5034590;28;20194;-59
2024/01/29 01:38:57;;;;;;;20.73;9.10;;;-1.30;99.90;;;;;;5040098;28;20180;-59
2024/01/29 01:41:23;;;;;;;20.07;9.67;;;-1.30;99.90;;;;;;5036090;28;20704;-59
2024/01/29 01:43:48;;;;;;;18.77;9.53;;;-1.30;99.90;;;;;;5032249;28;20178;-59
2024/01/29 01:46:23;;;;;;;19.93;10.80;;;-1.30;99.90;;;;;;5029986;28;20266;-59
2024/01/29 01:48:56;;;;;;;18.80;9.47;;;-1.30;99.90;;;;;;5044533;28;20261;-60
2024/01/29 01:51:22;;;;;;;15.40;9.60;;;-1.30;99.90;;;;;;5039537;28;20495;-58
2024/01/29 01:53:54;;;;;;;14.23;9.97;;;-1.30;99.90;;;;;;5030657;28;20443;-58
2024/01/29 01:56:20;;;;;;;16.80;9.40;;;-1.40;99.90;;;;;;5030480;28;20447;-58
2024/01/29 01:58:46;;;;;;;16.50;10.50;;;-1.40;99.90;;;;;;5035128;28;20458;-59
2024/01/29 02:01:14;;;;;;;22.53;10.20;;;-1.40;99.90;;;;;;5034985;28;20467;-59
2024/01/29 02:03:40;;;;;;;19.20;10.83;;;-1.40;99.90;;;;;;5032214;28;20167;-59
2024/01/29 02:06:07;;;;;;;21.57;10.63;;;-1.40;99.90;;;;;;5030537;28;20413;-59
2024/01/29 02:08:33;;;;;;;17.43;10.20;;;-1.40;99.90;;;;;;5033619;28;20435;-59
2024/01/29 02:11:00;;;;;;;19.37;9.43;;;-1.40;99.90;;;;;;5040505;28;20459;-58
2024/01/29 02:13:26;;;;;;;22.20;11.33;;;-1.40;99.90;;;;;;5045962;28;20964;-59
2024/01/29 02:15:52;;;;;;;17.37;9.57;;;-1.40;99.90;;;;;;5038506;28;20517;-58
2024/01/29 02:18:17;;;;;;;17.70;8.70;;;-1.40;99.90;;;;;;5038576;28;20178;-59
2024/01/29 02:20:43;;;;;;;17.40;9.10;;;-1.50;99.90;;;;;;5046367;28;20443;-59
2024/01/29 02:23:09;;;;;;;18.00;9.60;;;-1.50;99.90;;;;;;5030085;28;20202;-60
2024/01/29 02:25:35;;;;;;;16.43;9.60;;;-1.50;99.90;;;;;;5033159;28;20191;-59
2024/01/29 02:28:00;;;;;;;15.50;8.90;;;-1.50;99.90;;;;;;5030074;28;20178;-60
2024/01/29 02:30:26;;;;;;;15.20;9.33;;;-1.50;99.90;;;;;;5040577;28;20435;-59
2024/01/29 02:32:51;;;;;;;24.93;10.00;;;-1.50;99.90;;;;;;5036682;28;20587;-59
2024/01/29 02:35:17;;;;;;;12.10;8.17;;;-1.50;99.90;;;;;;5042283;28;20208;-58
2024/01/29 02:37:42;;;;;;;12.40;8.33;;;-1.50;99.90;;;;;;5033395;28;20293;-59
2024/01/29 02:40:09;;;;;;;15.73;8.67;;;-1.50;99.90;;;;;;5034882;28;20840;-58
2024/01/29 02:42:34;;;;;;;15.83;8.40;;;-1.50;99.90;;;;;;5039782;28;20572;-59
2024/01/29 02:45:00;;;;;;;25.50;8.90;;;-1.50;99.90;;;;;;5043397;28;20417;-61
2024/01/29 02:47:25;;;;;;;14.33;8.37;;;-1.50;99.90;;;;;;5037897;28;20184;-59
2024/01/29 02:49:51;;;;;;;14.43;9.47;;;-1.50;99.90;;;;;;5044223;28;20194;-59
2024/01/29 02:52:17;;;;;;;16.13;7.93;;;-1.50;99.90;;;;;;5044568;28;20248;-59
2024/01/29 02:54:42;;;;;;;12.17;7.43;;;-1.60;99.90;;;;;;5037883;28;20181;-59
2024/01/29 02:57:08;;;;;;;12.73;8.20;;;-1.60;99.90;;;;;;5039016;28;20275;-60
2024/01/29 02:59:33;;;;;;;9.80;6.90;;;-1.60;99.90;;;;;;5034901;28;20205;-60
2024/01/29 03:02:00;;;;;;;12.20;7.60;;;-1.60;99.90;;;;;;5041208;28;20205;-60
2024/01/29 03:04:26;;;;;;;13.97;7.87;;;-1.60;99.90;;;;;;5032644;28;20215;-60
2024/01/29 03:06:51;;;;;;;16.33;8.33;;;-1.70;99.90;;;;;;5042021;28;20416;-59
2024/01/29 03:09:17;;;;;;;15.37;7.80;;;-1.70;99.90;;;;;;5038353;28;20288;-59
2024/01/29 03:11:44;;;;;;;16.30;7.60;;;-1.70;99.90;;;;;;5041248;28;20192;-60
2024/01/29 03:14:09;;;;;;;13.90;7.87;;;-1.70;99.90;;;;;;5039580;28;20651;-59
2024/01/29 03:16:35;;;;;;;15.53;7.27;;;-1.70;99.90;;;;;;5045766;28;20470;-60
2024/01/29 03:19:01;;;;;;;16.20;8.27;;;-1.70;99.90;;;;;;5038279;28;20193;-59
2024/01/29 03:21:27;;;;;;;13.73;8.37;;;-1.70;99.90;;;;;;5034187;28;20480;-60
2024/01/29 03:23:54;;;;;;;12.03;7.73;;;-1.70;99.90;;;;;;5036708;28;20270;-59
2024/01/29 03:26:20;;;;;;;12.20;7.57;;;-1.70;99.90;;;;;;5040848;28;20428;-59
2024/01/29 03:28:45;;;;;;;10.50;6.87;;;-1.70;99.90;;;;;;5035498;28;20442;-59
2024/01/29 03:31:11;;;;;;;14.90;8.47;;;-1.80;99.90;;;;;;5033295;28;20247;-59
2024/01/29 03:33:36;;;;;;;11.70;7.40;;;-1.80;99.90;;;;;;5032938;28;20208;-59
2024/01/29 03:36:06;;;;;;;13.63;7.10;;;-1.70;99.90;;;;;;5041882;28;20178;-59
2024/01/29 03:38:32;;;;;;;12.73;7.20;;;-1.80;99.90;;;;;;5036253;28;20194;-59
2024/01/29 03:40:58;;;;;;;12.37;7.20;;;-1.80;99.90;;;;;;5034512;28;20812;-60
2024/01/29 03:43:24;;;;;;;14.30;8.10;;;-1.80;99.90;;;;;;5044934;28;20426;-59
2024/01/29 03:45:51;;;;;;;14.67;7.43;;;-1.80;99.90;;;;;;5031276;28;20456;-59
2024/01/29 03:48:16;;;;;;;16.40;7.50;;;-1.80;99.90;;;;;;5036855;28;20522;-59
2024/01/29 03:50:42;;;;;;;13.73;8.03;;;-1.80;99.90;;;;;;5033587;28;20458;-60
2024/01/29 03:53:08;;;;;;;15.13;7.77;;;-1.80;99.90;;;;;;5044045;28;20632;-60
2024/01/29 03:55:33;;;;;;;15.90;8.57;;;-1.90;99.90;;;;;;5039207;28;20468;-59
2024/01/29 03:57:59;;;;;;;13.67;7.67;;;-1.90;99.90;;;;;;5033976;28;20170;-59
2024/01/29 04:00:26;;;;;;;11.53;7.07;;;-1.90;99.90;;;;;;5032286;28;20194;-60
2024/01/29 04:02:52;;;;;;;12.97;8.27;;;-1.90;99.90;;;;;;5040088;28;20292;-59
2024/01/29 04:05:17;;;;;;;11.10;7.20;;;-1.90;99.90;;;;;;5037309;28;20531;-59
2024/01/29 04:07:44;;;;;;;14.57;8.27;;;-1.90;99.90;;;;;;5033968;28;20702;-59
2024/01/29 04:10:09;;;;;;;17.67;7.97;;;-1.90;99.90;;;;;;5041862;28;20437;-59
2024/01/29 04:12:35;;;;;;;22.40;8.60;;;-1.90;99.90;;;;;;5035761;28;20458;-58
2024/01/29 04:15:00;;;;;;;14.03;7.80;;;-1.90;99.90;;;;;;5042784;28;20189;-59
2024/01/29 04:17:26;;;;;;;17.93;8.27;;;-1.90;99.90;;;;;;5032565;28;20189;-59
2024/01/29 04:19:52;;;;;;;16.00;8.50;;;-1.90;99.90;;;;;;5036838;28;20200;-59
2024/01/29 04:22:17;;;;;;;11.60;7.30;;;-2.00;99.90;;;;;;5042846;28;20197;-60
2024/01/29 04:24:43;;;;;;;11.47;7.23;;;-2.00;99.90;;;;;;5033376;28;20253;-59
2024/01/29 04:27:08;;;;;;;17.10;7.77;;;-1.90;99.90;;;;;;5034985;28;22289;-60
2024/01/29 04:29:34;;;;;;;12.63;7.67;;;-1.90;99.90;;;;;;5032699;28;20578;-59
2024/01/29 04:31:59;;;;;;;11.20;7.33;;;-1.90;99.90;;;;;;5040603;28;20296;-59
2024/01/29 04:34:25;;;;;;;9.87;6.57;;;-1.90;99.90;;;;;;5033209;28;20271;-58
2024/01/29 04:36:51;;;;;;;15.27;8.13;;;-2.00;99.90;;;;;;5036761;28;20559;-59
2024/01/29 04:39:16;;;;;;;11.93;6.80;;;-1.90;99.90;;;;;;5039661;28;20939;-59
2024/01/29 04:41:42;;;;;;;11.00;6.90;;;-2.00;99.90;;;;;;5037798;28;20208;-59
2024/01/29 04:44:07;;;;;;;12.63;7.97;;;-2.00;99.90;;;;;;5033382;28;20182;-59
2024/01/29 04:46:33;;;;;;;15.60;7.13;;;-2.00;99.90;;;;;;5038440;28;20177;-59
2024/01/29 04:48:59;;;;;;;13.17;7.70;;;-2.00;99.90;;;;;;5030279;28;20181;-60
2024/01/29 04:51:26;;;;;;;11.00;8.10;;;-2.00;99.90;;;;;;5035909;28;20174;-60
2024/01/29 04:53:52;;;;;;;8.73;6.80;;;-2.00;99.90;;;;;;5037560;28;20235;-59
2024/01/29 04:56:17;;;;;;;16.73;7.63;;;-2.00;99.90;;;;;;5033983;28;20856;-59
2024/01/29 04:58:43;;;;;;;12.53;8.20;;;-2.00;99.90;;;;;;5037498;28;20176;-59
2024/01/29 05:01:09;;;;;;;10.37;6.93;;;-2.00;99.90;;;;;;5034618;28;20210;-59
2024/01/29 05:03:36;;;;;;;12.43;6.80;;;-2.00;99.90;;;;;;5035681;28;20247;-56
2024/01/29 05:06:02;;;;;;;12.60;7.23;;;-2.00;99.90;;;;;;5031201;28;20436;-58
2024/01/29 05:08:27;;;;;;;14.40;6.53;;;-2.00;99.90;;;;;;5033039;28;21152;-57
2024/01/29 05:10:53;;;;;;;14.23;7.70;;;-2.00;99.90;;;;;;5031331;28;20579;-60
2024/01/29 05:13:19;;;;;;;11.27;6.80;;;-2.00;99.90;;;;;;5028536;28;20182;-60
2024/01/29 05:15:45;;;;;;;8.63;6.70;;;-1.90;99.90;;;;;;5033729;28;20914;-59
2024/01/29 05:18:11;;;;;;;14.10;7.70;;;-1.90;99.90;;;;;;5032925;28;20209;-60
2024/01/29 05:20:37;;;;;;;11.27;6.50;;;-2.00;99.90;;;;;;5032179;28;20239;-61
2024/01/29 05:23:02;;;;;;;12.03;7.47;;;-2.00;99.90;;;;;;5035119;28;20881;-61
2024/01/29 05:25:28;;;;;;;10.20;7.07;;;-2.00;99.90;;;;;;5032165;28;20189;-61
2024/01/29 05:27:53;;;;;;;11.20;6.83;;;-2.00;99.90;;;;;;5034024;28;20185;-60
2024/01/29 05:30:19;;;;;;;14.53;7.43;;;-2.00;99.90;;;;;;5035482;28;20370;-60
2024/01/29 05:32:45;;;;;;;9.67;5.73;;;-2.00;99.90;;;;;;5038056;28;20238;-61
2024/01/29 05:35:11;;;;;;;9.40;6.43;;;-2.00;99.90;;;;;;5031349;28;20467;-61
2024/01/29 05:37:36;;;;;;;10.60;6.90;;;-2.00;99.90;;;;;;5034274;28;20189;-61
2024/01/29 05:40:02;;;;;;;13.70;6.90;;;-2.00;99.90;;;;;;5034058;28;20212;-59
2024/01/29 05:42:28;;;;;;;17.20;7.80;;;-2.00;99.90;;;;;;5029720;28;20629;-60
2024/01/29 05:44:53;;;;;;;18.10;8.77;;;-2.00;99.90;;;;;;5036132;28;20499;-60
2024/01/29 05:47:19;;;;;;;13.77;9.27;;;-2.00;99.90;;;;;;5031400;28;20185;-61
2024/01/29 05:49:44;;;;;;;17.57;10.93;;;-2.00;99.90;;;;;;5031366;28;20197;-60
2024/01/29 05:52:10;;;;;;;20.20;11.73;;;-2.00;99.90;;;;;;5042205;28;20181;-60
2024/01/29 05:54:36;;;;;;;15.20;8.57;;;-2.00;99.90;;;;;;5036233;28;20181;-60
2024/01/29 05:57:02;;;;;;;11.50;7.50;;;-2.00;99.90;;;;;;5033231;28;20247;-60
2024/01/29 05:59:27;;;;;;;19.63;9.37;;;-2.00;99.90;;;;;;5043710;28;20196;-60
2024/01/29 06:01:53;;;;;;;16.90;8.87;;;-2.00;99.90;;;;;;5043167;28;20467;-61
2024/01/29 06:04:18;;;;;;;12.17;7.53;;;-2.00;99.90;;;;;;5034621;28;20206;-60
2024/01/29 06:06:44;;;;;;;14.00;8.30;;;-2.00;99.90;;;;;;5045986;28;20215;-59
2024/01/29 06:09:10;;;;;;;11.47;7.97;;;-2.00;99.90;;;;;;5039958;28;20197;-60
2024/01/29 06:11:36;;;;;;;13.30;8.10;;;-2.00;99.90;;;;;;5044205;28;20185;-61
2024/01/29 06:14:02;;;;;;;11.90;7.73;;;-2.00;99.90;;;;;;5032421;28;20431;-61
2024/01/29 06:16:28;;;;;;;16.27;8.43;;;-2.10;99.90;;;;;;5045008;28;20428;-60
2024/01/29 06:18:55;;;;;;;11.50;8.40;;;-2.10;99.90;;;;;;5043302;28;20444;-61
2024/01/29 06:21:21;;;;;;;12.87;8.57;;;-2.10;99.90;;;;;;5037073;28;20463;-59
2024/01/29 06:23:48;;;;;;;15.70;8.90;;;-2.00;99.90;;;;;;5030190;28;20439;-60
2024/01/29 06:26:14;;;;;;;14.60;9.53;;;-2.00;99.90;;;;;;5032526;28;20479;-61
2024/01/29 06:28:41;;;;;;;15.80;8.80;;;-2.00;99.90;;;;;;5037465;28;20488;-60
2024/01/29 06:31:07;;;;;;;13.17;9.30;;;-2.00;99.90;;;;;;5032416;28;20216;-59
2024/01/29 06:33:35;;;;;;;18.70;9.43;;;-2.00;99.90;;;;;;5037229;28;20456;-60
2024/01/29 06:36:04;;;;;;;17.20;9.57;;;-2.00;99.90;;;;;;5032161;28;20231;-60
2024/01/29 06:38:30;;;;;;;16.53;9.90;;;-2.00;99.90;;;;;;5038047;28;20505;-61
2024/01/29 06:40:57;;;;;;;16.53;9.00;;;-2.00;99.90;;;;;;5029000;28;20526;-60
2024/01/29 06:43:22;;;;;;;18.60;9.80;;;-2.00;99.90;;;;;;5025941;28;20273;-61
2024/01/29 06:45:48;;;;;;;18.03;10.77;;;-2.00;99.90;;;;;;5036040;28;20560;-60
2024/01/29 06:48:13;;;;;;;19.80;9.90;;;-2.00;99.90;;;;;;5037793;28;20264;-60
2024/01/29 06:50:40;;;;;;;22.33;10.50;;;-2.00;99.90;;;;;;5031369;28;20205;-60
2024/01/29 06:53:06;;;;;;;21.50;11.00;;;-2.00;99.90;;;;;;5037902;28;20196;-60
2024/01/29 06:55:32;;;;;;;26.33;11.40;;;-2.00;99.90;;;;;;5040333;28;20440;-60
2024/01/29 06:57:57;;;;;;;18.23;10.70;;;-2.00;99.90;;;;;;5038462;28;20180;-60
2024/01/29 07:00:23;;;;;;;18.23;10.83;;;-2.00;99.90;;;;;;5038852;28;20532;-59
2024/01/29 07:02:49;;;;;;;21.07;10.93;;;-2.00;99.90;;;;;;5029343;28;20209;-60
2024/01/29 07:05:16;;;;;;;16.73;10.20;;;-2.00;99.90;;;;;;5045999;28;20440;-60
2024/01/29 07:07:42;;;;;;;19.07;9.53;;;-2.00;99.90;;;;;;5032594;28;20435;-59
2024/01/29 07:10:07;;;;;;;19.17;10.00;;;-2.00;99.90;;;;;;5039778;28;20443;-60
2024/01/29 07:12:33;;;;;;;19.80;10.73;;;-2.00;99.90;;;;;;5032766;28;20192;-60
2024/01/29 07:14:59;;;;;;;17.17;10.80;;;-2.00;99.90;;;;;;5033916;28;20209;-59
2024/01/29 07:17:24;;;;;;;20.40;12.23;;;-2.00;99.90;;;;;;5041869;28;20177;-60
2024/01/29 07:19:52;;;;;;;32.60;14.53;;;-2.00;99.90;;;;;;5047124;28;20686;-60
2024/01/29 07:22:21;;;;;;;32.93;15.23;;;-2.00;99.90;;;;;;5047747;28;20263;-59
2024/01/29 07:24:48;;;;;;;28.07;13.20;;;-2.00;99.90;;;;;;5033276;28;20429;-59
2024/01/29 07:27:15;;;;;;;23.97;11.10;;;-1.90;99.90;;;;;;5033138;28;20462;-59
2024/01/29 07:29:41;;;;;;;19.00;11.13;;;-1.90;99.90;;;;;;5038794;28;20531;-59
2024/01/29 07:32:07;;;;;;;20.70;11.10;;;-1.90;99.90;;;;;;5037162;28;20428;-59
2024/01/29 07:34:32;;;;;;;19.13;10.53;;;-1.90;99.90;;;;;;5036733;28;20185;-59
2024/01/29 07:36:59;;;;;;;21.23;11.53;;;-1.90;99.90;;;;;;5030093;28;20861;-60
2024/01/29 07:39:24;;;;;;;20.20;11.07;;;-1.90;99.90;;;;;;5038677;28;20618;-60
2024/01/29 07:41:50;;;;;;;21.20;10.50;;;-1.90;99.90;;;;;;5034603;28;20459;-60
2024/01/29 07:44:19;;;;;;;22.07;11.30;;;-1.80;99.90;;;;;;5048483;28;20207;-59
2024/01/29 07:46:44;;;;;;;17.23;10.03;;;-1.80;99.90;;;;;;5047662;28;20170;-59
2024/01/29 07:49:10;;;;;;;23.20;11.17;;;-1.80;99.90;;;;;;5041328;28;20525;-61
2024/01/29 07:51:40;;;;;;;20.43;11.10;;;-1.70;99.90;;;;;;5033912;28;20640;-59
2024/01/29 07:54:06;;;;;;;17.47;10.20;;;-1.70;99.90;;;;;;5036259;28;20568;-59
2024/01/29 07:56:32;;;;;;;18.63;10.70;;;-1.70;99.90;;;;;;5040673;28;20500;-60
2024/01/29 07:58:58;;;;;;;20.40;10.60;;;-1.60;99.90;;;;;;5033713;28;20511;-59
2024/01/29 08:01:23;;;;;;;24.57;12.00;;;-1.60;99.90;;;;;;5039686;28;20211;-59
2024/01/29 08:03:49;;;;;;;17.40;11.27;;;-1.50;99.90;;;;;;5042629;28;20186;-60
2024/01/29 08:06:15;;;;;;;24.30;11.00;;;-1.50;99.90;;;;;;5040653;28;20201;-59
2024/01/29 08:08:40;;;;;;;23.20;11.43;;;-1.40;99.90;;;;;;5037162;28;20946;-60
2024/01/29 08:11:06;;;;;;;29.73;13.33;;;-1.40;99.90;;;;;;5036032;28;20225;-60
2024/01/29 08:13:31;;;;;;;21.97;11.13;;;-1.30;99.90;;;;;;5038153;28;20212;-60
2024/01/29 08:15:59;;;;;;;29.67;12.90;;;-1.30;99.90;;;;;;5037901;28;20182;-60
2024/01/29 08:18:25;;;;;;;31.20;12.70;;;-1.20;99.90;;;;;;5032831;28;20869;-60
2024/01/29 08:20:50;;;;;;;25.10;11.17;;;-1.20;99.90;;;;;;5031755;28;20452;-60
2024/01/29 08:23:16;;;;;;;20.70;11.23;;;-1.10;99.90;;;;;;5037837;28;20449;-59
2024/01/29 08:25:42;;;;;;;19.93;11.30;;;-1.00;99.90;;;;;;5031833;28;20219;-59
2024/01/29 08:28:07;;;;;;;17.67;9.80;;;-1.00;99.90;;;;;;5032008;28;20182;-60
2024/01/29 08:30:33;;;;;;;13.83;9.57;;;-0.90;99.90;;;;;;5032501;28;20204;-60
2024/01/29 08:32:59;;;;;;;20.27;10.87;;;-0.80;99.90;;;;;;5027890;28;21060;-59
2024/01/29 08:35:24;;;;;;;24.00;10.50;;;-0.80;99.90;;;;;;5031326;28;20570;-59
2024/01/29 08:37:50;;;;;;;24.63;11.30;;;-0.70;99.90;;;;;;5031661;28;20175;-59
2024/01/29 08:40:16;;;;;;;28.20;11.50;;;-0.70;99.90;;;;;;5039771;28;20745;-60
2024/01/29 08:42:41;;;;;;;25.23;12.57;;;-0.60;99.90;;;;;;5043693;28;20205;-60
2024/01/29 08:45:07;;;;;;;25.60;12.53;;;-0.50;99.90;;;;;;5040059;28;20259;-60
2024/01/29 08:47:33;;;;;;;32.07;14.23;;;-0.50;99.90;;;;;;5033787;28;20181;-59
2024/01/29 08:49:58;;;;;;;29.90;13.70;;;-0.40;99.90;;;;;;5034976;28;20799;-59
2024/01/29 08:52:24;;;;;;;32.07;14.80;;;-0.30;99.90;;;;;;5036037;28;20187;-60
2024/01/29 08:54:49;;;;;;;38.17;14.07;;;-0.30;99.90;;;;;;5041324;28;20181;-60
2024/01/29 08:57:15;;;;;;;29.83;12.60;;;-0.20;99.90;;;;;;5038341;28;20265;-59
2024/01/29 08:59:44;;;;;;;21.73;9.13;;;-0.10;99.90;;;;;;5032523;28;21582;-59
2024/01/29 09:02:10;;;;;;;18.87;8.50;;;-0.10;99.90;;;;;;5045829;28;20954;-61
2024/01/29 09:04:36;;;;;;;16.33;9.13;;;0.00;99.90;;;;;;5040111;28;20432;-60
2024/01/29 09:07:02;;;;;;;12.57;7.13;;;0.00;99.90;;;;;;5039475;28;20431;-59
2024/01/29 09:09:27;;;;;;;15.73;8.00;;;0.10;99.90;;;;;;5040312;28;20213;-60
2024/01/29 09:11:53;;;;;;;13.10;7.33;;;0.20;99.90;;;;;;5038120;28;20642;-64
2024/01/29 09:14:20;;;;;;;11.40;6.97;;;0.30;99.90;;;;;;5033964;28;20207;-60
2024/01/29 09:16:45;;;;;;;17.13;8.00;;;0.40;99.90;;;;;;5031419;28;20174;-59
2024/01/29 09:19:13;;;;;;;19.23;9.53;;;0.50;99.90;;;;;;5044119;28;20510;-60
2024/01/29 09:21:41;;;;;;;15.00;9.07;;;0.50;99.90;;;;;;5038125;28;20252;-60
2024/01/29 09:24:06;;;;;;;13.77;8.77;;;0.70;99.90;;;;;;5033344;28;20424;-59
2024/01/29 09:26:32;;;;;;;14.60;8.30;;;0.70;99.90;;;;;;5034633;28;20448;-59
2024/01/29 09:28:58;;;;;;;15.37;9.53;;;0.80;99.90;;;;;;5041194;28;20201;-60
2024/01/29 09:31:24;;;;;;;27.63;10.20;;;0.90;99.90;;;;;;5033434;28;20562;-60
2024/01/29 09:33:50;;;;;;;19.13;11.30;;;1.00;99.90;;;;;;5031803;28;20178;-60
2024/01/29 09:36:15;;;;;;;16.17;10.27;;;1.10;99.90;;;;;;5031814;28;20823;-62
2024/01/29 09:38:41;;;;;;;17.67;10.17;;;1.20;99.90;;;;;;5038986;28;20770;-61
2024/01/29 09:41:07;;;;;;;15.17;9.70;;;1.30;99.90;;;;;;5040409;28;20635;-61
2024/01/29 09:43:35;;;;;;;17.10;10.03;;;1.40;99.90;;;;;;5038571;28;20202;-61
2024/01/29 09:46:04;;;;;;;16.60;8.87;;;1.60;99.90;;;;;;5042778;28;20624;-59
2024/01/29 09:48:32;;;;;;;12.40;7.60;;;1.70;99.90;;;;;;5035401;28;20801;-60
2024/01/29 09:50:59;;;;;;;20.93;8.53;;;1.80;99.90;;;;;;5025180;28;20478;-58
2024/01/29 09:53:26;;;;;;;15.83;8.00;;;1.90;99.90;;;;;;5031255;28;20516;-56
2024/01/29 09:55:52;;;;;;;12.03;6.70;;;2.00;99.90;;;;;;5032445;28;20508;-57
2024/01/29 09:58:18;;;;;;;8.07;5.27;;;2.10;99.90;;;;;;5042407;28;20441;-55
2024/01/29 10:00:44;;;;;;;16.93;6.90;;;2.20;99.90;;;;;;5032153;28;20202;-59
2024/01/29 10:03:24;;;;;;;12.43;6.47;;;2.30;99.90;;;;;;5036531;28;20477;-60
2024/01/29 10:05:51;;;;;;;15.23;8.10;;;2.50;99.90;;;;;;5037091;28;20645;-60
2024/01/29 10:08:17;;;;;;;16.63;9.33;;;2.60;99.90;;;;;;5040414;28;20429;-60
2024/01/29 10:10:43;;;;;;;18.83;8.53;;;2.70;99.90;;;;;;5031701;28;20457;-60
2024/01/29 10:13:09;;;;;;;14.33;7.73;;;2.90;99.90;;;;;;5035348;28;20430;-59
2024/01/29 10:15:35;;;;;;;13.87;8.40;;;3.00;96.80;;;;;;5027086;28;20187;-60
2024/01/29 10:18:00;;;;;;;14.47;8.20;;;3.00;98.10;;;;;;5034481;28;20312;-60
2024/01/29 10:20:28;;;;;;;14.40;7.53;;;3.10;98.10;;;;;;5032610;28;20596;-60
2024/01/29 10:23:00;;;;;;;19.53;9.07;;;3.30;96.60;;;;;;5035950;28;20210;-61
2024/01/29 10:25:27;;;;;;;14.77;8.80;;;3.40;95.70;;;;;;5031458;28;20445;-60
2024/01/29 10:27:54;;;;;;;14.93;8.70;;;3.50;95.20;;;;;;5038929;28;20429;-60
2024/01/29 10:30:20;;;;;;;14.33;8.33;;;3.60;95.00;;;;;;5035369;28;20476;-60
2024/01/29 10:32:46;;;;;;;13.10;8.00;;;3.80;93.90;;;;;;5029265;28;20444;-60
2024/01/29 10:35:11;;;;;;;12.53;8.20;;;4.00;93.10;;;;;;5033685;28;20425;-61
2024/01/29 10:37:37;;;;;;;14.77;8.50;;;4.10;90.90;;;;;;5032589;28;20214;-61
2024/01/29 10:40:05;;;;;;;12.70;8.27;;;4.20;90.60;;;;;;5038537;28;20187;-62
2024/01/29 10:42:32;;;;;;;13.27;7.50;;;4.30;91.20;;;;;;5032332;28;20334;-60
2024/01/29 10:44:59;;;;;;;13.60;8.80;;;4.40;89.70;;;;;;5035593;28;20426;-61
2024/01/29 10:47:31;;;;;;;13.97;9.03;;;4.50;90.60;;;;;;5030135;28;20422;-61
2024/01/29 10:49:58;;;;;;;13.63;8.93;;;4.60;90.90;;;;;;5030632;28;20450;-61
2024/01/29 10:52:26;;;;;;;20.83;9.27;;;4.70;89.80;;;;;;5038741;28;20417;-60
2024/01/29 10:54:52;;;;;;;17.20;8.20;;;4.80;90.40;;;;;;5030023;28;20452;-60
2024/01/29 10:57:20;;;;;;;12.30;8.17;;;4.90;90.70;;;;;;5029271;28;20442;-60
2024/01/29 10:59:47;;;;;;;13.43;8.60;;;5.10;91.30;;;;;;5031209;28;20488;-63
2024/01/29 11:02:16;;;;;;;12.53;7.93;;;5.20;90.80;;;;;;5040504;28;20540;-63
2024/01/29 11:04:43;;;;;;;13.60;9.27;;;5.40;90.60;;;;;;5033952;28;21203;-63
2024/01/29 11:07:22;;;;;;;14.00;8.90;;;5.50;90.50;;;;;;5038740;28;20437;-62
2024/01/29 11:10:01;;;;;;;16.80;8.83;;;5.70;90.20;;;;;;5034403;28;20453;-60
2024/01/29 11:12:28;;;;;;;12.30;7.97;;;5.80;88.00;;;;;;5029485;28;20999;-60
2024/01/29 11:15:02;;;;;;;11.60;8.27;;;6.00;87.30;;;;;;5030388;28;20422;-58
2024/01/29 11:17:28;;;;;;;12.60;8.77;;;6.10;86.10;;;;;;5040676;28;20426;-56
2024/01/29 11:19:58;;;;;;;14.57;8.73;;;6.30;86.00;;;;;;5039118;28;20913;-56
2024/01/29 11:22:34;;;;;;;15.50;9.13;;;6.50;85.40;;;;;;5034959;28;20468;-58
2024/01/29 11:25:08;;;;;;;13.07;9.80;;;6.60;83.70;;;;;;5035422;28;20453;-60
2024/01/29 11:27:37;;;;;;;11.93;8.37;;;6.80;83.10;;;;;;5032514;28;21161;-60
2024/01/29 11:30:13;;;;;;;15.37;8.73;;;6.90;80.80;;;;;;5032918;28;20541;-60
2024/01/29 11:32:40;;;;;;;12.17;8.30;;;7.10;79.50;;;;;;5037634;28;20453;-60
2024/01/29 11:35:14;;;;;;;11.53;7.90;;;7.20;79.00;;;;;;5030718;28;20446;-60
2024/01/29 11:37:41;;;;;;;11.77;7.80;;;7.40;77.90;;;;;;5033231;28;20487;-62
2024/01/29 11:40:38;;;;;;;12.40;8.30;;;7.60;76.90;;;;;;5032220;28;21078;-61
2024/01/29 11:43:08;;;;;;;10.73;7.50;;;7.80;75.60;;;;;;5037088;28;20468;-61
2024/01/29 11:45:36;;;;;;;18.27;7.70;;;8.00;74.10;;;;;;5042786;28;20429;-60
2024/01/29 11:48:02;;;;;;;11.93;8.77;;;8.20;73.20;;;;;;5036013;28;20420;-61
2024/01/29 11:50:28;;;;;;;12.47;8.80;;;8.30;72.10;;;;;;5031080;28;20457;-60
2024/01/29 11:52:54;;;;;;;16.23;10.30;;;8.50;71.20;;;;;;5030687;28;20436;-60
2024/01/29 11:55:21;;;;;;;12.17;8.10;;;8.70;70.10;;;;;;5041299;28;20386;-61
2024/01/29 11:57:47;;;;;;;12.20;7.93;;;8.80;69.20;;;;;;5036395;28;20453;-61
2024/01/29 12:00:18;;;;;;;10.87;7.43;;;9.00;68.30;;;;;;5041307;28;20457;-60
2024/01/29 12:02:51;;;;;;;11.60;7.20;;;9.20;67.40;;;;;;5029552;28;20458;-61
2024/01/29 12:05:18;;;;;;;18.50;8.63;;;9.40;66.40;;;;;;5033821;28;20436;-59
2024/01/29 12:07:47;;;;;;;14.03;7.83;;;9.60;66.00;;;;;;5026778;28;20453;-59
2024/01/29 12:10:13;;;;;;;12.00;7.27;;;9.80;65.80;;;;;;5033196;28;20477;-59
2024/01/29 12:12:39;;;;;;;13.70;7.80;;;10.00;64.70;;;;;;5036581;28;20499;-61
2024/01/29 12:15:08;;;;;;;18.73;6.80;;;10.20;64.20;;;;;;5035615;28;20441;-61
2024/01/29 12:17:41;;;;;;;12.00;7.87;;;10.40;62.30;;;;;;5038037;28;20446;-60
2024/01/29 12:20:10;;;;;;;24.30;8.53;;;10.50;61.70;;;;;;5034131;28;20972;-61
2024/01/29 12:22:37;;;;;;;13.30;7.43;;;10.60;61.10;;;;;;5034515;28;21037;-61
2024/01/29 12:25:03;;;;;;;14.80;8.53;;;10.70;60.60;;;;;;5037529;28;20451;-60
2024/01/29 12:27:29;;;;;;;14.23;8.60;;;10.80;60.10;;;;;;5034862;28;20417;-61
2024/01/29 12:29:56;;;;;;;12.90;7.70;;;10.80;59.30;;;;;;5032318;28;20438;-60
2024/01/29 12:32:22;;;;;;;9.37;6.03;;;10.80;59.00;;;;;;5039068;28;20245;-61